createdAt,value
2022-12-23T02:31:10.135Z,71.82
2022-12-23T02:32:10.771Z,71.51
2022-12-23T02:33:11.184Z,70.84
2022-12-23T02:34:10.568Z,70.94
2022-12-23T02:35:10.806Z,70.66
2022-12-23T02:36:10.429Z,70.08
2022-12-23T02:37:10.226Z,70.26
2022-12-23T02:38:10.438Z,70.32
2022-12-23T02:39:10.103Z,70.00
2022-12-23T02:40:10.317Z,69.72
2022-12-23T02:41:10.148Z,69.51
2022-12-23T02:42:10.220Z,70.43
2022-12-23T02:43:11.319Z,69.78
2022-12-23T02:44:09.910Z,69.14
2022-12-23T02:45:09.843Z,69.18
2022-12-23T02:46:10.083Z,68.96
2022-12-23T02:47:10.179Z,69.03
2022-12-23T02:48:10.432Z,69.48
2022-12-23T02:49:10.140Z,69.83
2022-12-23T02:50:09.572Z,70.39
2022-12-23T02:51:09.772Z,69.68
2022-12-23T02:52:09.505Z,70.01
2022-12-23T02:53:09.584Z,70.05
2022-12-23T02:54:09.624Z,69.87
2022-12-23T02:55:09.434Z,71.57
2022-12-23T02:56:10.173Z,71.14
2022-12-23T02:57:09.605Z,70.70
2022-12-23T02:58:09.376Z,70.10
2022-12-23T02:59:09.851Z,69.97
2022-12-23T03:00:09.272Z,70.94
2022-12-23T03:01:09.710Z,71.36
2022-12-23T03:02:09.446Z,70.80
2022-12-23T03:03:09.268Z,71.15
2022-12-23T03:04:10.965Z,71.23
2022-12-23T03:05:09.208Z,72.21
2022-12-23T03:06:09.080Z,72.07
2022-12-23T03:07:11.418Z,71.76
2022-12-23T03:08:09.813Z,71.72
2022-12-23T03:09:09.665Z,71.59
2022-12-23T03:10:09.542Z,71.99
2022-12-23T03:11:10.080Z,71.34
2022-12-23T03:12:09.138Z,71.91
2022-12-23T03:13:09.601Z,72.26
2022-12-23T03:14:09.296Z,72.31
2022-12-23T03:15:08.771Z,72.32
2022-12-23T03:16:09.202Z,72.36
2022-12-23T03:17:09.024Z,72.24
2022-12-23T03:18:08.890Z,72.55
2022-12-23T03:19:08.726Z,73.60
2022-12-23T03:20:08.576Z,73.45
2022-12-23T03:21:10.237Z,73.05
2022-12-23T03:22:08.814Z,73.58
2022-12-23T03:23:08.599Z,73.95
2022-12-23T03:24:08.765Z,75.09
2022-12-23T03:25:08.665Z,74.02
2022-12-23T03:26:08.923Z,74.06
2022-12-23T03:27:08.413Z,73.84
2022-12-23T03:28:10.180Z,73.77
2022-12-23T03:29:08.370Z,73.51
2022-12-23T03:30:08.593Z,74.09
2022-12-23T03:31:08.834Z,73.99
2022-12-23T03:32:08.938Z,73.68
2022-12-23T03:33:08.342Z,73.24
2022-12-23T03:34:08.421Z,73.55
2022-12-23T03:35:08.163Z,74.97
2022-12-23T03:36:07.958Z,74.73
2022-12-23T03:37:07.934Z,74.10
2022-12-23T03:38:07.916Z,73.53
2022-12-23T03:39:07.993Z,74.35
2022-12-23T03:40:07.865Z,73.76
2022-12-23T03:41:07.816Z,73.03
2022-12-23T03:42:07.915Z,72.83
2022-12-23T03:43:08.122Z,74.98
2022-12-23T03:44:07.801Z,74.86
2022-12-23T03:46:07.844Z,76.13
2022-12-23T03:47:07.899Z,76.65
2022-12-23T03:48:07.790Z,76.82
2022-12-23T03:49:07.543Z,75.85
2022-12-23T03:50:07.509Z,75.22
2022-12-23T03:51:07.471Z,74.77
2022-12-23T03:52:07.414Z,74.03
2022-12-23T03:53:07.418Z,73.14
2022-12-23T03:54:07.332Z,72.93
2022-12-23T03:55:07.329Z,72.43
2022-12-23T03:56:07.295Z,72.44
2022-12-23T03:57:07.264Z,73.65
2022-12-23T03:58:07.252Z,73.63
2022-12-23T03:59:07.125Z,74.90
2022-12-23T04:00:07.102Z,74.66
2022-12-23T04:01:07.060Z,73.92
2022-12-23T04:02:07.550Z,73.84
2022-12-23T04:03:06.974Z,75.46
2022-12-23T04:04:07.549Z,75.06
2022-12-23T04:05:06.925Z,74.95
2022-12-23T04:06:06.851Z,74.33
2022-12-23T04:07:06.839Z,73.77
2022-12-23T04:08:06.776Z,74.60
2022-12-23T04:09:06.733Z,74.83
2022-12-23T04:10:06.682Z,74.48
2022-12-23T04:11:06.620Z,75.11
2022-12-23T04:12:06.589Z,76.31
2022-12-23T04:13:06.579Z,75.59
2022-12-23T04:14:06.882Z,75.32
2022-12-23T04:15:12.617Z,74.79
2022-12-23T04:16:06.517Z,74.97
2022-12-23T04:17:06.707Z,75.53
2022-12-23T04:18:06.412Z,74.85
2022-12-23T04:19:06.570Z,74.78
2022-12-23T04:20:06.500Z,75.34
2022-12-23T04:21:06.533Z,74.60
2022-12-23T04:22:06.243Z,75.22
2022-12-23T04:23:06.213Z,74.33
2022-12-23T04:24:06.181Z,75.17
2022-12-23T04:25:06.168Z,74.98
2022-12-23T04:26:06.104Z,75.10
2022-12-23T04:27:06.340Z,74.92
2022-12-23T04:28:06.138Z,74.82
2022-12-23T04:29:06.004Z,75.95
2022-12-23T04:30:06.034Z,75.40
2022-12-23T04:31:06.017Z,75.24
2022-12-23T04:32:06.082Z,75.30
2022-12-23T04:33:05.864Z,74.73
2022-12-23T04:34:06.176Z,74.80
2022-12-23T04:35:05.753Z,76.14
2022-12-23T04:36:05.718Z,75.70
2022-12-23T04:37:05.725Z,75.38
2022-12-23T04:38:05.923Z,75.05
2022-12-23T04:39:05.694Z,75.14
2022-12-23T04:40:05.575Z,75.58
2022-12-23T04:41:05.536Z,75.62
2022-12-23T04:42:05.441Z,75.57
2022-12-23T04:43:05.369Z,75.14
2022-12-23T04:44:05.314Z,74.94
2022-12-23T04:45:05.282Z,75.48
2022-12-23T04:46:05.247Z,76.05
2022-12-23T04:47:05.383Z,75.79
2022-12-23T04:48:05.220Z,75.61
2022-12-23T04:49:05.175Z,76.11
2022-12-23T04:50:05.039Z,75.57
2022-12-23T04:51:04.996Z,75.44
2022-12-23T04:52:04.906Z,75.52
2022-12-23T04:53:05.019Z,75.16
2022-12-23T04:54:04.866Z,76.27
2022-12-23T04:55:05.022Z,76.27
2022-12-23T04:56:04.866Z,75.15
2022-12-23T04:57:04.831Z,75.09
2022-12-23T04:58:04.669Z,75.74
2022-12-23T04:59:04.652Z,75.15
2022-12-23T05:00:04.606Z,75.37
2022-12-23T05:01:04.700Z,74.78
2022-12-23T05:02:04.666Z,74.59
2022-12-23T05:03:04.605Z,74.78
2022-12-23T05:04:04.439Z,75.77
2022-12-23T05:05:04.381Z,75.22
2022-12-23T05:06:04.326Z,75.50
2022-12-23T05:07:04.430Z,75.01
2022-12-23T05:08:05.471Z,74.53
2022-12-23T05:09:04.562Z,75.65
2022-12-23T05:10:04.347Z,75.40
2022-12-23T05:11:06.256Z,75.87
2022-12-23T05:12:04.861Z,75.12
2022-12-23T05:13:04.691Z,75.17
2022-12-23T05:14:04.989Z,75.38
2022-12-23T05:15:04.265Z,75.95
2022-12-23T05:16:04.156Z,74.88
2022-12-23T05:17:07.719Z,74.70
2022-12-23T05:18:04.239Z,76.02
2022-12-23T05:19:03.937Z,76.21
2022-12-23T05:20:03.842Z,76.50
2022-12-23T05:21:03.936Z,76.74
2022-12-23T05:22:04.491Z,77.23
2022-12-23T05:23:03.678Z,75.69
2022-12-23T05:24:03.624Z,75.00
2022-12-23T05:25:03.449Z,75.36
2022-12-23T05:26:03.541Z,75.47
2022-12-23T05:27:03.578Z,75.13
2022-12-23T05:28:03.583Z,74.70
2022-12-23T05:29:03.280Z,73.95
2022-12-23T05:30:03.376Z,74.49
2022-12-23T05:31:03.689Z,74.87
2022-12-23T05:32:03.251Z,74.38
2022-12-23T05:33:03.057Z,74.97
2022-12-23T05:34:06.581Z,74.04
2022-12-23T05:35:02.938Z,74.56
2022-12-23T05:36:03.369Z,74.39
2022-12-23T05:37:03.191Z,74.30
2022-12-23T05:38:03.200Z,74.99
2022-12-23T05:39:03.045Z,74.63
2022-12-23T05:40:03.176Z,74.08
2022-12-23T05:41:02.713Z,75.42
2022-12-23T05:42:02.876Z,74.64
2022-12-23T05:43:02.786Z,74.12
2022-12-23T05:44:02.537Z,73.68
2022-12-23T05:45:02.692Z,74.19
2022-12-23T05:46:02.867Z,74.17
2022-12-23T05:47:02.454Z,75.75
2022-12-23T05:48:02.478Z,76.11
2022-12-23T05:49:02.612Z,76.14
2022-12-23T05:50:02.996Z,75.73
2022-12-23T05:51:02.376Z,76.41
2022-12-23T05:52:02.257Z,76.74
2022-12-23T05:53:02.807Z,76.46
2022-12-23T05:54:02.425Z,76.31
2022-12-23T05:55:02.301Z,76.58
2022-12-23T05:56:02.188Z,76.00
2022-12-23T05:57:02.151Z,75.66
2022-12-23T05:58:02.000Z,75.50
2022-12-23T05:59:02.274Z,75.75
2022-12-23T06:00:01.985Z,74.79
2022-12-23T06:01:02.603Z,75.01
2022-12-23T06:02:02.272Z,74.21
2022-12-23T06:03:02.083Z,73.77
2022-12-23T06:04:02.183Z,74.13
2022-12-23T06:05:01.639Z,74.17
2022-12-23T06:06:01.843Z,74.02
2022-12-23T06:07:01.584Z,74.31
2022-12-23T06:08:01.617Z,73.67
2022-12-23T06:09:01.758Z,73.74
2022-12-23T06:10:01.464Z,74.42
2022-12-23T06:11:01.378Z,74.23
2022-12-23T06:12:01.560Z,74.64
2022-12-23T06:13:01.809Z,74.06
2022-12-23T06:14:01.457Z,74.78
2022-12-23T06:15:01.117Z,74.83
2022-12-23T06:16:01.643Z,74.40
2022-12-23T06:17:01.423Z,74.60
2022-12-23T06:18:01.142Z,75.70
2022-12-23T06:19:01.763Z,74.89
2022-12-23T06:20:01.550Z,75.54
2022-12-23T06:21:00.903Z,75.91
2022-12-23T06:22:01.174Z,75.51
2022-12-23T06:23:01.397Z,74.81
2022-12-23T06:24:00.860Z,74.77
2022-12-23T06:25:00.807Z,74.26
2022-12-23T06:26:00.802Z,74.35
2022-12-23T06:27:01.676Z,73.80
2022-12-23T06:28:01.549Z,73.89
2022-12-23T06:29:01.068Z,75.06
2022-12-23T06:30:00.756Z,74.76
2022-12-23T06:31:01.763Z,74.21
2022-12-23T06:32:00.797Z,74.21
2022-12-23T06:33:00.689Z,74.03
2022-12-23T06:34:00.686Z,74.22
2022-12-23T06:35:00.560Z,73.97
2022-12-23T06:36:00.400Z,73.45
2022-12-23T06:37:00.323Z,73.21
2022-12-23T06:38:00.338Z,72.87
2022-12-23T06:39:00.460Z,72.68
2022-12-23T06:40:00.220Z,72.68
2022-12-23T06:41:00.241Z,72.43
2022-12-23T06:42:00.170Z,72.55
2022-12-23T06:43:00.243Z,73.37
2022-12-23T06:44:00.134Z,72.94
2022-12-23T06:45:00.011Z,72.21
2022-12-23T06:46:00.045Z,72.49
2022-12-23T06:46:59.954Z,72.63
2022-12-23T06:47:59.896Z,72.57
2022-12-23T06:48:59.849Z,71.99
2022-12-23T06:49:59.798Z,72.67
2022-12-23T06:50:59.738Z,71.94
2022-12-23T06:51:59.657Z,71.35
2022-12-23T06:52:59.639Z,71.26
2022-12-23T06:53:59.563Z,71.12
2022-12-23T06:54:59.485Z,71.15
2022-12-23T06:55:59.449Z,70.86
2022-12-23T06:56:59.366Z,70.59
2022-12-23T06:57:59.315Z,70.22
2022-12-23T06:58:59.345Z,69.99
2022-12-23T06:59:59.259Z,69.63
2022-12-23T07:00:59.167Z,70.33
2022-12-23T07:01:59.392Z,70.42
2022-12-23T07:02:59.272Z,70.48
2022-12-23T07:03:58.988Z,69.83
2022-12-23T07:04:58.908Z,69.49
2022-12-23T07:05:58.837Z,69.67
2022-12-23T07:06:58.782Z,69.28
2022-12-23T07:07:58.739Z,69.57
2022-12-23T07:08:58.743Z,69.39
2022-12-23T07:09:58.663Z,69.36
2022-12-23T07:10:58.600Z,69.40
2022-12-23T07:11:58.536Z,69.08
2022-12-23T07:12:58.499Z,69.06
2022-12-23T07:13:58.455Z,68.98
2022-12-23T07:14:58.469Z,68.88
2022-12-23T07:15:58.407Z,68.83
2022-12-23T07:16:58.494Z,68.78
2022-12-23T07:17:58.306Z,69.56
2022-12-23T07:18:58.286Z,69.90
2022-12-23T07:19:58.252Z,69.54
2022-12-23T07:20:58.216Z,69.90
2022-12-23T07:21:58.211Z,70.00
2022-12-23T07:22:58.153Z,69.90
2022-12-23T07:23:58.125Z,69.94
2022-12-23T07:24:58.011Z,69.96
2022-12-23T07:25:57.969Z,69.83
2022-12-23T07:26:57.960Z,69.92
2022-12-23T07:27:57.951Z,69.93
2022-12-23T07:28:57.827Z,70.08
2022-12-23T07:29:57.807Z,70.08
2022-12-23T07:30:57.876Z,70.28
2022-12-23T07:31:57.815Z,70.21
2022-12-23T07:32:57.661Z,70.30
2022-12-23T07:33:57.631Z,71.75
2022-12-23T07:34:57.603Z,71.41
2022-12-23T07:35:57.561Z,71.10
2022-12-23T07:36:57.495Z,72.17
2022-12-23T07:37:57.438Z,71.51
2022-12-23T07:38:57.385Z,71.06
2022-12-23T07:39:57.350Z,71.32
2022-12-23T07:40:57.312Z,71.87
2022-12-23T07:42:25.163Z,72.25
2022-12-23T07:42:57.208Z,72.58
2022-12-23T07:43:57.219Z,72.48
2022-12-23T07:44:57.156Z,72.17
2022-12-23T07:46:00.395Z,71.93
2022-12-23T07:46:57.099Z,71.99
2022-12-23T07:47:56.977Z,71.69
2022-12-23T07:48:56.943Z,72.10
2022-12-23T07:49:56.897Z,71.35
2022-12-23T07:50:56.915Z,71.30
2022-12-23T07:51:56.802Z,71.95
2022-12-23T07:52:56.747Z,71.57
2022-12-23T07:53:56.702Z,70.93
2022-12-23T07:54:56.611Z,71.19
2022-12-23T07:55:57.084Z,71.03
2022-12-23T07:56:56.531Z,71.28
2022-12-23T07:57:56.492Z,70.91
2022-12-23T07:58:56.414Z,70.77
2022-12-23T07:59:57.218Z,70.36
2022-12-23T08:00:56.362Z,70.11
2022-12-23T08:01:56.433Z,70.41
2022-12-23T08:02:56.339Z,70.31
2022-12-23T08:03:56.205Z,70.25
2022-12-23T08:04:56.206Z,69.84
2022-12-23T08:05:56.059Z,69.50
2022-12-23T08:06:56.406Z,69.90
2022-12-23T08:07:55.996Z,70.02
2022-12-23T08:08:56.002Z,69.82
2022-12-23T08:09:55.897Z,69.73
2022-12-23T08:10:55.874Z,69.54
2022-12-23T08:11:55.756Z,69.74
2022-12-23T08:12:57.721Z,69.38
2022-12-23T08:13:56.168Z,69.38
2022-12-23T08:14:55.800Z,69.17
2022-12-23T08:15:55.737Z,69.05
2022-12-23T08:16:55.635Z,68.94
2022-12-23T08:17:55.886Z,69.06
2022-12-23T08:18:55.490Z,69.30
2022-12-23T08:19:55.517Z,69.05
2022-12-23T08:20:55.548Z,69.24
2022-12-23T08:21:55.363Z,69.31
2022-12-23T08:22:55.355Z,69.62
2022-12-23T08:23:55.275Z,69.95
2022-12-23T08:24:55.636Z,70.06
2022-12-23T08:25:55.324Z,69.94
2022-12-23T08:26:55.480Z,69.85
2022-12-23T08:27:55.895Z,70.21
2022-12-23T08:28:55.012Z,70.14
2022-12-23T08:29:55.868Z,70.19
2022-12-23T08:30:54.969Z,69.85
2022-12-23T08:31:54.893Z,69.74
2022-12-23T08:32:54.992Z,69.85
2022-12-23T08:33:54.746Z,70.09
2022-12-23T08:34:55.011Z,71.23
2022-12-23T08:35:54.613Z,70.97
2022-12-23T08:36:54.753Z,70.95
2022-12-23T08:37:54.715Z,71.47
2022-12-23T08:38:54.696Z,71.51
2022-12-23T08:39:54.493Z,71.11
2022-12-23T08:40:54.616Z,70.80
2022-12-23T08:41:54.477Z,70.50
2022-12-23T08:42:54.215Z,70.64
2022-12-23T08:43:54.423Z,69.91
2022-12-23T08:44:54.213Z,70.39
2022-12-23T08:45:54.248Z,70.48
2022-12-23T08:46:53.985Z,69.75
2022-12-23T08:47:53.910Z,69.39
2022-12-23T08:48:53.840Z,69.10
2022-12-23T08:49:53.924Z,68.49
2022-12-23T08:50:53.915Z,68.26
2022-12-23T08:51:53.663Z,68.14
2022-12-23T08:52:53.680Z,67.99
2022-12-23T08:53:59.604Z,67.90
2022-12-23T08:54:53.514Z,68.14
2022-12-23T08:55:53.380Z,67.79
2022-12-23T08:56:53.609Z,67.77
2022-12-23T08:57:53.245Z,68.62
2022-12-23T08:58:53.815Z,69.62
2022-12-23T08:59:53.777Z,68.67
2022-12-23T09:00:53.858Z,68.99
2022-12-23T09:01:53.656Z,69.08
2022-12-23T09:02:55.134Z,68.61
2022-12-23T09:03:53.415Z,69.69
2022-12-23T09:04:53.711Z,68.70
2022-12-23T09:05:53.337Z,68.90
2022-12-23T09:06:52.874Z,68.48
2022-12-23T09:07:53.381Z,67.84
2022-12-23T09:08:52.622Z,67.78
2022-12-23T09:09:52.579Z,69.28
2022-12-23T09:10:52.858Z,68.17
2022-12-23T09:11:52.488Z,67.86
2022-12-23T09:12:52.836Z,67.66
2022-12-23T09:13:52.430Z,67.28
2022-12-23T09:14:52.169Z,67.65
2022-12-23T09:15:52.062Z,67.79
2022-12-23T09:16:52.285Z,67.50
2022-12-23T09:17:52.212Z,67.80
2022-12-23T09:18:51.984Z,67.74
2022-12-23T09:19:53.170Z,67.45
2022-12-23T09:20:52.960Z,67.00
2022-12-23T09:21:52.540Z,66.94
2022-12-23T09:22:52.372Z,67.32
2022-12-23T09:23:51.752Z,67.14
2022-12-23T09:24:52.136Z,67.16
2022-12-23T09:25:52.735Z,67.65
2022-12-23T09:26:52.017Z,67.05
2022-12-23T09:27:52.644Z,67.35
2022-12-23T09:28:51.846Z,67.12
2022-12-23T09:29:51.933Z,66.89
2022-12-23T09:30:51.448Z,66.44
2022-12-23T09:31:51.481Z,66.99
2022-12-23T09:32:51.670Z,66.35
2022-12-23T09:33:51.441Z,66.14
2022-12-23T09:34:51.149Z,66.59
2022-12-23T09:35:51.139Z,66.66
2022-12-23T09:36:55.271Z,66.66
2022-12-23T09:37:50.675Z,67.12
2022-12-23T09:38:50.650Z,67.40
2022-12-23T09:39:50.600Z,68.01
2022-12-23T09:40:50.466Z,68.17
2022-12-23T09:41:50.401Z,68.01
2022-12-23T09:42:50.330Z,68.13
2022-12-23T09:43:50.204Z,68.06
2022-12-23T09:44:50.165Z,68.02
2022-12-23T09:45:50.110Z,67.53
2022-12-23T09:46:50.037Z,67.12
2022-12-23T09:47:49.924Z,66.85
2022-12-23T09:48:49.857Z,66.72
2022-12-23T09:49:49.809Z,66.94
2022-12-23T09:50:49.687Z,67.08
2022-12-23T09:51:49.659Z,67.09
2022-12-23T09:52:49.522Z,66.88
2022-12-23T09:53:49.428Z,66.50
2022-12-23T09:54:49.308Z,66.42
2022-12-23T09:55:49.312Z,66.41
2022-12-23T09:56:49.122Z,66.24
2022-12-23T09:57:49.095Z,65.78
2022-12-23T09:58:48.966Z,65.32
2022-12-23T09:59:48.894Z,64.93
2022-12-23T10:00:48.758Z,64.64
2022-12-23T10:01:48.899Z,64.24
2022-12-23T10:02:48.796Z,63.88
2022-12-23T10:03:48.768Z,63.68
2022-12-23T10:04:48.368Z,63.47
2022-12-23T10:05:48.353Z,63.56
2022-12-23T10:06:48.212Z,64.07
2022-12-23T10:07:48.153Z,63.70
2022-12-23T10:08:48.113Z,63.85
2022-12-23T10:09:48.027Z,63.47
2022-12-23T10:10:47.927Z,63.40
2022-12-23T10:11:47.862Z,63.58
2022-12-23T10:12:47.719Z,63.23
2022-12-23T10:13:47.743Z,63.45
2022-12-23T10:14:47.612Z,63.76
2022-12-23T10:15:47.618Z,64.64
2022-12-23T10:16:47.575Z,64.47
2022-12-23T10:17:47.395Z,64.69
2022-12-23T10:18:47.369Z,65.05
2022-12-23T10:19:47.288Z,65.25
2022-12-23T10:20:47.229Z,65.89
2022-12-23T10:21:48.064Z,65.58
2022-12-23T10:22:47.090Z,65.84
2022-12-23T10:23:47.009Z,65.89
2022-12-23T10:24:46.970Z,66.23
2022-12-23T10:25:46.898Z,65.73
2022-12-23T10:26:46.749Z,65.45
2022-12-23T10:27:46.765Z,65.21
2022-12-23T10:28:46.619Z,65.10
2022-12-23T10:29:46.534Z,65.12
2022-12-23T10:31:46.441Z,64.35
2022-12-23T10:32:46.336Z,63.88
2022-12-23T10:33:46.160Z,66.20
2022-12-23T10:34:46.012Z,69.07
2022-12-23T10:35:45.982Z,68.60
2022-12-23T10:36:45.900Z,69.57
2022-12-23T10:37:45.760Z,68.40
2022-12-23T10:38:45.662Z,69.38
2022-12-23T10:39:45.622Z,70.69
2022-12-23T10:40:45.561Z,69.40
2022-12-23T10:41:45.447Z,68.68
2022-12-23T10:42:45.319Z,67.91
2022-12-23T10:43:45.329Z,67.54
2022-12-23T10:44:45.248Z,66.52
2022-12-23T10:45:45.048Z,65.99
2022-12-23T10:46:45.070Z,65.30
2022-12-23T10:47:44.968Z,64.80
2022-12-23T10:48:44.776Z,64.37
2022-12-23T10:49:44.698Z,64.03
2022-12-23T10:50:44.614Z,63.73
2022-12-23T10:51:44.516Z,63.36
2022-12-23T10:52:44.468Z,62.94
2022-12-23T10:53:44.383Z,62.84
2022-12-23T10:54:44.279Z,62.56
2022-12-23T10:55:44.148Z,62.29
2022-12-23T10:56:44.037Z,62.47
2022-12-23T10:57:43.914Z,62.12
2022-12-23T10:58:43.838Z,61.81
2022-12-23T10:59:43.808Z,62.41
2022-12-23T11:00:43.696Z,62.00
2022-12-23T11:01:43.750Z,61.36
2022-12-23T12:46:34.207Z,63.01
2022-12-23T12:47:53.297Z,63.04
2022-12-23T12:48:33.920Z,63.00
2022-12-23T12:49:33.819Z,62.85
2022-12-23T12:50:33.744Z,63.11
2022-12-23T12:51:33.734Z,63.18
2022-12-23T12:52:33.594Z,62.97
2022-12-23T14:10:25.603Z,62.07
2022-12-23T14:11:25.464Z,62.19
2022-12-23T14:12:25.399Z,61.86
2022-12-23T14:13:25.364Z,61.68
2022-12-23T14:14:25.263Z,61.80
2022-12-23T14:15:25.213Z,62.33
2022-12-23T14:16:25.085Z,62.30
2022-12-23T14:17:24.868Z,62.28
2022-12-23T14:18:24.780Z,62.24
2022-12-23T14:19:24.760Z,62.21
2022-12-23T14:20:24.579Z,61.96
2022-12-23T14:21:24.498Z,61.87
2022-12-23T14:22:24.380Z,61.90
2022-12-23T14:23:25.242Z,61.77
2022-12-23T14:24:24.160Z,61.84
2022-12-23T14:25:24.106Z,61.89
2022-12-23T14:26:24.007Z,61.90
2022-12-23T14:27:23.905Z,62.41
2022-12-23T14:28:23.928Z,62.39
2022-12-23T14:29:23.963Z,62.95
2022-12-23T14:30:23.642Z,62.84
2022-12-23T14:35:23.092Z,62.92
2022-12-23T14:36:23.061Z,63.06
2022-12-23T14:37:22.994Z,62.68
2022-12-23T14:38:22.724Z,62.79
2022-12-23T14:39:22.666Z,64.30
2022-12-23T14:40:22.542Z,64.04
2022-12-23T14:41:22.483Z,64.78
2022-12-23T14:42:22.372Z,64.66
2022-12-23T14:43:22.556Z,64.33
2022-12-23T14:44:22.257Z,64.18
2022-12-23T14:45:22.080Z,64.37
2022-12-23T14:46:22.255Z,64.02
2022-12-23T14:47:22.743Z,64.25
2022-12-23T14:48:21.929Z,63.90
2022-12-23T14:49:39.571Z,63.87
2022-12-23T14:50:21.639Z,63.89
2022-12-23T14:51:21.484Z,63.67
2022-12-23T14:52:21.394Z,63.52
2022-12-23T14:53:21.390Z,63.85
2022-12-23T14:54:21.284Z,64.32
2022-12-23T14:55:30.286Z,64.20
2022-12-23T14:56:21.023Z,63.76
2022-12-23T14:57:20.928Z,63.54
2022-12-23T14:58:20.804Z,63.44
2022-12-23T14:59:20.734Z,63.26
2022-12-23T15:00:20.718Z,63.20
2022-12-23T15:01:20.751Z,63.51
2022-12-23T15:02:20.554Z,63.43
2022-12-23T15:03:20.569Z,63.51
2022-12-23T15:04:20.277Z,63.42
2022-12-23T15:05:20.305Z,63.47
2022-12-23T15:06:20.191Z,63.57
2022-12-23T15:07:20.173Z,63.63
2022-12-23T15:08:19.885Z,63.56
2022-12-23T15:09:19.896Z,63.51
2022-12-23T15:10:19.785Z,63.57
2022-12-23T15:11:19.607Z,63.45
2022-12-23T15:12:19.656Z,63.41
2022-12-23T15:13:20.677Z,63.32
2022-12-23T15:14:19.562Z,63.32
2022-12-23T15:15:19.389Z,63.74
2022-12-23T15:16:19.551Z,63.82
2022-12-23T15:17:19.224Z,63.77
2022-12-23T15:18:19.107Z,64.18
2022-12-23T15:19:19.099Z,65.98
2022-12-23T15:20:18.993Z,64.89
2022-12-23T15:21:18.849Z,64.82
2022-12-23T15:22:25.299Z,65.24
2022-12-23T15:23:18.847Z,64.84
2022-12-23T15:24:18.648Z,64.67
2022-12-23T15:25:18.422Z,64.62
2022-12-23T15:26:18.342Z,64.66
2022-12-23T15:27:27.269Z,64.55
2022-12-23T15:28:18.295Z,64.57
2022-12-23T15:29:18.182Z,64.83
2022-12-23T15:30:18.055Z,64.73
2022-12-23T15:31:17.927Z,64.68
2022-12-23T15:32:17.940Z,64.60
2022-12-23T15:33:52.058Z,64.56
2022-12-23T15:34:17.849Z,64.64
2022-12-23T15:35:17.732Z,64.76
2022-12-23T15:36:17.576Z,64.77
2022-12-23T15:37:17.366Z,65.03
2022-12-23T15:38:17.332Z,64.92
2022-12-23T15:39:17.271Z,64.83
2022-12-23T15:40:17.120Z,64.57
2022-12-23T15:41:17.065Z,64.61
2022-12-23T15:42:16.951Z,64.44
2022-12-23T15:43:16.843Z,64.40
2022-12-23T15:44:16.744Z,64.81
2022-12-23T15:45:16.643Z,64.53
2022-12-23T15:46:16.655Z,64.47
2022-12-23T15:47:16.529Z,64.50
2022-12-23T15:48:16.388Z,64.37
2022-12-23T15:49:16.385Z,64.31
2022-12-23T15:50:16.302Z,64.25
2022-12-23T15:51:30.535Z,64.26
2022-12-23T15:52:20.519Z,64.29
2022-12-23T15:53:16.161Z,64.30
2022-12-23T15:54:16.231Z,64.34
2022-12-23T15:55:16.096Z,64.33
2022-12-23T15:56:15.927Z,64.29
2022-12-23T15:57:15.855Z,64.68
2022-12-23T15:58:15.853Z,64.44
2022-12-23T15:59:15.744Z,64.42
2022-12-23T16:00:15.586Z,64.45
2022-12-23T16:01:15.471Z,64.41
2022-12-23T16:02:49.533Z,64.27
2022-12-23T16:03:16.170Z,64.39
2022-12-23T16:04:15.328Z,64.39
2022-12-23T16:05:15.168Z,64.34
2022-12-23T16:06:15.124Z,64.33
2022-12-23T16:07:15.007Z,64.36
2022-12-23T16:08:15.043Z,64.40
2022-12-23T16:09:14.890Z,64.39
2022-12-23T16:10:14.805Z,64.45
2022-12-23T16:11:14.761Z,64.36
2022-12-23T16:12:14.596Z,64.47
2022-12-23T16:13:14.516Z,64.47
2022-12-23T16:14:14.464Z,64.50
2022-12-23T16:15:14.331Z,64.59
2022-12-23T16:16:15.268Z,64.58
2022-12-23T16:17:14.253Z,64.67
2022-12-23T16:18:14.239Z,64.81
2022-12-23T16:19:14.024Z,64.83
2022-12-23T16:20:13.975Z,64.89
2022-12-23T16:21:13.859Z,64.90
2022-12-23T16:22:13.782Z,64.95
2022-12-23T16:23:13.770Z,64.99
2022-12-23T16:24:13.645Z,65.68
2022-12-23T16:25:13.514Z,65.39
2022-12-23T16:26:13.420Z,65.29
2022-12-23T16:27:13.344Z,65.17
2022-12-23T16:28:13.316Z,65.15
2022-12-23T16:29:13.238Z,65.10
2022-12-23T16:30:13.104Z,65.10
2022-12-23T16:31:13.097Z,65.12
2022-12-23T16:32:13.050Z,65.05
2022-12-23T16:33:12.851Z,65.01
2022-12-23T16:34:12.742Z,65.26
2022-12-23T16:35:12.689Z,65.44
2022-12-23T16:36:12.608Z,65.15
2022-12-23T16:37:12.544Z,65.19
2022-12-23T16:38:12.407Z,65.03
2022-12-23T16:39:12.384Z,65.09
2022-12-23T16:40:12.220Z,65.26
2022-12-23T16:41:12.204Z,65.22
2022-12-23T16:42:12.197Z,66.38
2022-12-23T16:43:12.035Z,66.49
2022-12-23T16:44:11.927Z,66.23
2022-12-23T16:45:11.794Z,66.02
2022-12-23T16:46:11.947Z,66.31
2022-12-23T16:47:11.665Z,66.31
2022-12-23T16:48:11.636Z,66.46
2022-12-23T16:49:11.471Z,66.33
2022-12-23T16:50:11.358Z,66.27
2022-12-23T16:51:11.255Z,67.43
2022-12-23T16:52:11.203Z,66.61
2022-12-23T16:53:11.072Z,66.65
2022-12-23T16:54:11.000Z,66.83
2022-12-23T16:55:10.925Z,66.57
2022-12-23T16:56:10.815Z,66.43
2022-12-23T16:57:10.788Z,67.00
2022-12-23T16:58:10.647Z,67.13
2022-12-23T16:59:10.558Z,66.87
2022-12-23T17:00:10.486Z,66.84
2022-12-23T17:01:10.486Z,66.52
2022-12-23T17:02:10.405Z,66.39
2022-12-23T17:03:10.239Z,66.60
2022-12-23T17:04:10.187Z,66.15
2022-12-23T17:05:10.060Z,66.87
2022-12-23T17:06:09.980Z,66.37
2022-12-23T17:07:09.919Z,66.42
2022-12-23T17:08:09.928Z,66.30
2022-12-23T17:09:09.813Z,66.56
2022-12-23T17:10:09.716Z,66.47
2022-12-23T17:11:09.665Z,66.41
2022-12-23T17:12:09.543Z,66.45
2022-12-23T17:13:09.458Z,66.69
2022-12-23T17:14:13.693Z,66.92
2022-12-23T17:15:09.413Z,66.48
2022-12-23T17:16:09.897Z,66.44
2022-12-23T17:17:09.154Z,67.91
2022-12-23T17:18:08.989Z,66.99
2022-12-23T17:19:08.942Z,66.82
2022-12-23T17:20:08.943Z,66.91
2022-12-23T17:21:08.759Z,66.78
2022-12-23T17:22:08.721Z,66.40
2022-12-23T17:23:08.663Z,66.73
2022-12-23T17:24:08.583Z,67.12
2022-12-23T17:25:08.458Z,67.04
2022-12-23T17:26:08.534Z,67.17
2022-12-23T17:27:08.382Z,67.17
2022-12-23T17:28:08.287Z,67.59
2022-12-23T17:29:08.295Z,67.07
2022-12-23T17:30:08.107Z,67.19
2022-12-23T17:31:14.203Z,67.10
2022-12-23T17:32:08.035Z,67.05
2022-12-23T17:33:07.810Z,67.61
2022-12-23T17:34:07.774Z,67.42
2022-12-23T17:35:07.718Z,67.42
2022-12-23T17:36:07.676Z,67.36
2022-12-23T17:37:07.602Z,67.25
2022-12-23T17:38:07.698Z,67.21
2022-12-23T17:39:07.521Z,67.29
2022-12-23T17:40:07.336Z,67.13
2022-12-23T17:41:07.211Z,67.39
2022-12-23T17:42:07.437Z,68.83
2022-12-23T17:43:07.007Z,68.12
2022-12-23T17:44:07.096Z,67.72
2022-12-23T17:45:07.350Z,67.63
2022-12-23T17:46:06.844Z,67.83
2022-12-23T17:47:06.652Z,67.64
2022-12-23T17:48:06.685Z,67.47
2022-12-23T17:49:06.777Z,67.33
2022-12-23T17:50:06.441Z,67.15
2022-12-23T17:51:06.475Z,67.18
2022-12-23T17:52:06.433Z,66.99
2022-12-23T17:53:06.264Z,66.87
2022-12-23T17:54:06.104Z,66.73
2022-12-23T17:55:06.073Z,66.57
2022-12-23T17:56:05.967Z,66.52
2022-12-23T17:57:06.072Z,66.46
2022-12-23T17:58:05.722Z,66.38
2022-12-23T17:59:05.722Z,66.40
2022-12-23T18:00:05.679Z,66.39
2022-12-23T18:01:06.080Z,66.32
2022-12-23T18:02:05.457Z,66.28
2022-12-23T18:03:05.332Z,66.24
2022-12-23T18:04:05.218Z,66.21
2022-12-23T18:05:05.427Z,66.66
2022-12-23T18:06:05.341Z,66.25
2022-12-23T18:07:05.006Z,66.27
2022-12-23T18:08:04.946Z,65.97
2022-12-23T18:09:05.338Z,66.27
2022-12-23T18:10:05.120Z,67.14
2022-12-23T18:11:05.201Z,67.26
2022-12-23T18:12:04.867Z,67.78
2022-12-23T18:13:04.734Z,67.81
2022-12-23T18:14:04.640Z,68.26
2022-12-23T18:15:04.693Z,69.01
2022-12-23T18:16:04.490Z,69.51
2022-12-23T18:17:04.292Z,69.35
2022-12-23T18:18:04.361Z,69.40
2022-12-23T18:19:04.356Z,69.31
2022-12-23T18:20:04.227Z,69.26
2022-12-23T18:21:04.090Z,68.96
2022-12-23T18:22:04.229Z,69.10
2022-12-23T18:23:04.212Z,68.95
2022-12-23T18:24:03.981Z,68.93
2022-12-23T18:25:03.982Z,68.87
2022-12-23T18:26:03.808Z,69.10
2022-12-23T18:27:03.758Z,68.86
2022-12-23T18:28:03.684Z,68.70
2022-12-23T18:29:03.867Z,68.65